Time;durP1;ratioP1;P1;durP2;ratioP2;P2;SDS_P1;SDS_P2;PMS_P1;PMS_P2;Temp;Humidity;BMP_temperature;BMP_pressure;BME280_temperature;BME280_humidity;BME280_pressure;Samples;Min_cycle;Max_cycle;Signal;HPM_P1;HPM_P2
2024/01/31 00:00:07;;;;;;;9.97;1.53;;;7.10;99.90;;;;;;5012131;28;20033;-77
2024/01/31 00:02:33;;;;;;;8.00;1.27;;;7.10;99.90;;;;;;5013467;28;20448;-78
2024/01/31 00:04:59;;;;;;;8.83;0.90;;;7.00;99.90;;;;;;5028627;28;20026;-78
2024/01/31 00:07:24;;;;;;;8.63;1.30;;;7.10;99.90;;;;;;5013332;28;20034;-78
2024/01/31 00:09:50;;;;;;;5.03;1.00;;;7.00;99.90;;;;;;5013767;28;20156;-78
2024/01/31 00:12:16;;;;;;;6.43;1.17;;;7.00;99.90;;;;;;5013434;28;20030;-78
2024/01/31 00:14:45;;;;;;;4.70;0.77;;;7.00;99.90;;;;;;5013433;28;20608;-77
2024/01/31 00:17:11;;;;;;;5.17;0.80;;;7.00;99.90;;;;;;5013088;28;20026;-78
2024/01/31 00:19:36;;;;;;;3.47;0.70;;;7.00;99.90;;;;;;5012063;28;20117;-78
2024/01/31 00:22:02;;;;;;;7.73;1.13;;;7.00;99.90;;;;;;5012995;28;20033;-77
2024/01/31 00:24:28;;;;;;;3.23;0.90;;;7.00;99.90;;;;;;5013362;28;20014;-78
2024/01/31 00:26:53;;;;;;;5.90;1.00;;;6.90;99.90;;;;;;5028407;28;20020;-77
2024/01/31 00:29:19;;;;;;;4.33;1.00;;;6.90;99.90;;;;;;5011753;28;20049;-78
2024/01/31 00:31:45;;;;;;;7.80;1.20;;;6.90;99.90;;;;;;5028067;28;20489;-78
2024/01/31 00:34:11;;;;;;;11.17;1.00;;;6.90;99.90;;;;;;5014475;28;20033;-77
2024/01/31 00:36:37;;;;;;;6.40;1.03;;;6.90;99.90;;;;;;5032698;28;20029;-78
2024/01/31 00:39:05;;;;;;;8.97;1.63;;;6.90;99.90;;;;;;5032918;28;20049;-78
2024/01/31 00:41:31;;;;;;;4.03;1.03;;;6.90;99.90;;;;;;5032447;28;20036;-77
2024/01/31 00:43:56;;;;;;;7.00;1.00;;;6.90;99.90;;;;;;5032920;28;20115;-77
2024/01/31 00:46:22;;;;;;;5.93;1.13;;;6.90;99.90;;;;;;5031168;28;20520;-77
2024/01/31 00:48:48;;;;;;;5.57;1.40;;;6.90;99.90;;;;;;5035364;28;20018;-78
2024/01/31 00:51:13;;;;;;;3.57;1.00;;;6.90;99.90;;;;;;5036722;28;20094;-77
2024/01/31 00:53:39;;;;;;;7.73;1.87;;;6.90;99.90;;;;;;5036519;28;20042;-78
2024/01/31 00:56:05;;;;;;;5.57;1.00;;;6.80;99.90;;;;;;5036851;28;20438;-77
2024/01/31 00:58:34;;;;;;;2.90;0.90;;;6.90;99.90;;;;;;5036572;28;20026;-77
2024/01/31 01:01:00;;;;;;;6.03;1.20;;;6.80;99.90;;;;;;5036412;28;20092;-78
2024/01/31 01:03:26;;;;;;;3.20;0.87;;;6.80;99.90;;;;;;5036418;28;20477;-77
2024/01/31 01:05:51;;;;;;;6.00;0.87;;;6.90;99.90;;;;;;5036268;28;20025;-78
2024/01/31 01:08:17;;;;;;;7.20;1.00;;;6.80;99.90;;;;;;5036446;28;20025;-77
2024/01/31 01:10:42;;;;;;;5.33;1.03;;;6.80;99.90;;;;;;5036297;28;20028;-77
2024/01/31 01:13:08;;;;;;;4.43;0.87;;;6.80;99.90;;;;;;5036340;28;20108;-78
2024/01/31 01:15:34;;;;;;;5.97;1.10;;;6.80;99.90;;;;;;5036094;28;20378;-78
2024/01/31 01:17:59;;;;;;;5.43;0.87;;;6.80;99.90;;;;;;5036394;28;20028;-78
2024/01/31 01:20:25;;;;;;;7.10;1.07;;;6.80;99.90;;;;;;5036208;28;20036;-78
2024/01/31 01:22:51;;;;;;;4.23;1.00;;;6.80;99.90;;;;;;5036807;28;20029;-78
2024/01/31 01:25:16;;;;;;;4.63;0.83;;;6.80;99.90;;;;;;5035884;28;20025;-77
2024/01/31 01:27:50;;;;;;;6.27;0.83;;;6.80;99.90;;;;;;5036055;28;20040;-78
2024/01/31 01:30:20;;;;;;;5.20;0.90;;;6.80;99.90;;;;;;5036003;28;20025;-78
2024/01/31 01:32:45;;;;;;;10.63;1.10;;;6.80;99.90;;;;;;5035736;28;20034;-78
2024/01/31 01:35:11;;;;;;;4.97;0.90;;;6.80;99.90;;;;;;5036045;28;20507;-78
2024/01/31 01:37:37;;;;;;;8.43;1.00;;;6.80;99.90;;;;;;5035602;28;20060;-78
2024/01/31 01:40:03;;;;;;;3.53;0.67;;;6.80;99.90;;;;;;5034490;28;20508;-78
2024/01/31 01:42:28;;;;;;;3.80;0.63;;;6.80;99.90;;;;;;5035416;28;20504;-78
2024/01/31 01:44:54;;;;;;;3.23;0.70;;;6.90;99.90;;;;;;5035800;28;20026;-78
2024/01/31 01:47:20;;;;;;;4.87;1.30;;;6.90;99.90;;;;;;5034162;28;20014;-78
2024/01/31 01:49:49;;;;;;;3.83;0.80;;;6.90;99.90;;;;;;5035742;28;20018;-78
2024/01/31 01:52:15;;;;;;;4.00;1.00;;;6.90;99.90;;;;;;5035240;28;20030;-78
2024/01/31 01:54:41;;;;;;;5.43;0.70;;;6.90;99.90;;;;;;5035527;28;20030;-78
2024/01/31 01:57:08;;;;;;;5.00;0.97;;;6.90;99.90;;;;;;5034169;28;20102;-78
2024/01/31 01:59:35;;;;;;;4.03;1.20;;;6.90;99.90;;;;;;5034686;28;20152;-78
2024/01/31 02:02:01;;;;;;;4.83;0.87;;;6.90;99.90;;;;;;5035193;28;20104;-78
2024/01/31 02:04:29;;;;;;;3.20;0.90;;;6.90;99.90;;;;;;5034018;28;20028;-78
2024/01/31 02:06:55;;;;;;;7.87;1.00;;;6.90;99.90;;;;;;5034034;28;20024;-78
2024/01/31 02:09:21;;;;;;;5.53;1.10;;;6.90;99.90;;;;;;5033996;28;20014;-78
2024/01/31 02:11:47;;;;;;;6.30;0.90;;;6.90;99.90;;;;;;5033655;28;20120;-78
2024/01/31 02:14:12;;;;;;;5.37;1.00;;;6.90;99.90;;;;;;5035391;28;20036;-78
2024/01/31 02:16:38;;;;;;;5.60;1.00;;;6.90;99.90;;;;;;5035272;28;20584;-78
2024/01/31 02:19:04;;;;;;;3.37;1.00;;;7.00;99.90;;;;;;5035188;28;20017;-79
2024/01/31 02:21:31;;;;;;;6.87;0.97;;;6.90;99.90;;;;;;5034904;28;20029;-78
2024/01/31 02:23:56;;;;;;;5.13;1.03;;;7.00;99.90;;;;;;5035111;28;20045;-78
2024/01/31 02:26:22;;;;;;;4.00;1.10;;;7.00;99.90;;;;;;5033508;28;20080;-78
2024/01/31 02:28:48;;;;;;;5.73;1.40;;;6.90;99.90;;;;;;5033704;28;20045;-78
2024/01/31 02:31:13;;;;;;;2.37;0.70;;;6.90;99.90;;;;;;5033593;28;20026;-78
2024/01/31 02:33:39;;;;;;;5.50;1.20;;;6.90;99.90;;;;;;5033373;28;20128;-78
2024/01/31 02:36:05;;;;;;;5.70;1.13;;;6.90;99.90;;;;;;5034755;28;20032;-78
2024/01/31 02:38:31;;;;;;;4.63;1.00;;;6.90;99.90;;;;;;5034754;28;20053;-78
2024/01/31 02:40:57;;;;;;;4.43;1.17;;;6.90;99.90;;;;;;5034474;28;20025;-78
2024/01/31 02:43:23;;;;;;;9.20;1.13;;;6.80;99.90;;;;;;5034446;28;20110;-78
2024/01/31 02:45:48;;;;;;;4.37;1.13;;;6.80;99.90;;;;;;5034523;28;20028;-78
2024/01/31 02:48:14;;;;;;;5.57;1.27;;;6.80;99.90;;;;;;5034052;28;20060;-78
2024/01/31 02:50:39;;;;;;;5.17;1.10;;;6.80;99.90;;;;;;5034625;28;20031;-78
2024/01/31 02:53:05;;;;;;;3.80;0.97;;;6.80;99.90;;;;;;5033145;28;20134;-78
2024/01/31 02:55:31;;;;;;;3.40;1.00;;;6.80;99.90;;;;;;5034302;28;20121;-78
2024/01/31 02:57:56;;;;;;;5.77;1.50;;;6.80;99.90;;;;;;5034760;28;20080;-78
2024/01/31 03:00:22;;;;;;;3.27;0.70;;;6.80;99.90;;;;;;5033213;28;20080;-78
2024/01/31 03:02:48;;;;;;;3.83;1.10;;;6.70;99.90;;;;;;5032929;28;20033;-78
2024/01/31 03:05:13;;;;;;;5.80;0.93;;;6.80;99.90;;;;;;5034125;28;20028;-78
2024/01/31 03:07:40;;;;;;;4.77;0.97;;;6.80;99.90;;;;;;5034403;28;20477;-78
2024/01/31 03:10:06;;;;;;;7.13;1.10;;;6.80;99.90;;;;;;5033797;28;20029;-80
2024/01/31 03:12:32;;;;;;;3.70;0.87;;;6.80;99.90;;;;;;5033307;28;20049;-78
2024/01/31 03:14:57;;;;;;;4.70;0.70;;;6.90;99.90;;;;;;5032625;28;20018;-78
2024/01/31 03:17:23;;;;;;;4.93;1.03;;;6.90;99.90;;;;;;5033856;28;20056;-78
2024/01/31 03:19:49;;;;;;;3.40;0.87;;;6.90;99.90;;;;;;5033744;28;20022;-78
2024/01/31 03:22:14;;;;;;;5.53;1.00;;;6.90;99.90;;;;;;5032804;28;20082;-78
2024/01/31 03:24:40;;;;;;;5.90;1.23;;;6.90;99.90;;;;;;5033853;28;20516;-78
2024/01/31 03:27:06;;;;;;;4.00;0.90;;;6.90;99.90;;;;;;5033957;28;20481;-77
2024/01/31 03:29:32;;;;;;;3.33;0.87;;;6.90;99.90;;;;;;5032633;28;20061;-78
2024/01/31 03:31:58;;;;;;;5.50;1.00;;;6.90;99.90;;;;;;5033544;28;20029;-77
2024/01/31 03:34:24;;;;;;;4.80;0.90;;;7.00;99.90;;;;;;5033631;28;20079;-77
2024/01/31 03:36:49;;;;;;;4.90;1.10;;;7.00;99.90;;;;;;5034072;28;20049;-77
2024/01/31 03:39:15;;;;;;;3.73;0.93;;;7.00;99.90;;;;;;5033369;28;20513;-78
2024/01/31 03:41:44;;;;;;;4.40;1.00;;;7.00;99.90;;;;;;5032056;28;20542;-78
2024/01/31 03:44:10;;;;;;;4.77;1.07;;;7.00;99.90;;;;;;5033565;28;20034;-78
2024/01/31 03:46:35;;;;;;;3.83;1.00;;;7.00;99.90;;;;;;5033277;28;20177;-78
2024/01/31 03:49:01;;;;;;;4.27;0.80;;;7.00;99.90;;;;;;5033411;28;20065;-78
2024/01/31 03:51:27;;;;;;;6.93;1.37;;;7.00;99.90;;;;;;5031969;28;20029;-78
2024/01/31 03:53:52;;;;;;;5.47;0.90;;;7.00;99.90;;;;;;5033442;28;20413;-78
2024/01/31 03:56:18;;;;;;;2.50;0.80;;;7.00;99.90;;;;;;5033466;28;20021;-78
2024/01/31 03:58:44;;;;;;;6.10;1.03;;;7.00;99.90;;;;;;5033404;28;20079;-78
2024/01/31 04:01:14;;;;;;;4.80;0.70;;;7.00;99.90;;;;;;5033415;28;20416;-78
2024/01/31 04:03:42;;;;;;;5.83;1.10;;;7.00;99.90;;;;;;5033158;28;20080;-78
2024/01/31 04:06:07;;;;;;;4.00;0.70;;;7.00;99.90;;;;;;5031861;28;20029;-78
2024/01/31 04:08:33;;;;;;;4.23;1.10;;;7.00;99.90;;;;;;5033083;28;20417;-78
2024/01/31 04:10:59;;;;;;;5.83;0.80;;;7.00;99.90;;;;;;5031888;28;20022;-78
2024/01/31 04:13:24;;;;;;;5.37;1.00;;;7.00;99.90;;;;;;5033295;28;20392;-78
2024/01/31 04:15:50;;;;;;;4.93;0.70;;;7.00;99.90;;;;;;5033175;28;20500;-78
2024/01/31 04:18:16;;;;;;;4.73;0.97;;;7.00;99.90;;;;;;5032816;28;20029;-78
2024/01/31 04:20:41;;;;;;;3.93;0.73;;;7.00;99.90;;;;;;5033141;28;20110;-78
2024/01/31 04:23:07;;;;;;;7.37;1.30;;;6.90;99.90;;;;;;5031393;28;20424;-78
2024/01/31 04:25:34;;;;;;;6.40;1.20;;;6.90;99.90;;;;;;5033223;28;20048;-78
2024/01/31 04:27:59;;;;;;;7.10;1.17;;;6.90;99.90;;;;;;5033022;28;20101;-78
2024/01/31 04:30:25;;;;;;;3.43;0.90;;;6.90;99.90;;;;;;5031553;28;20457;-77
2024/01/31 04:32:51;;;;;;;3.97;0.77;;;6.90;99.90;;;;;;5032780;28;20038;-77
2024/01/31 04:35:16;;;;;;;6.20;1.00;;;6.90;99.90;;;;;;5033805;28;20056;-77
2024/01/31 04:37:42;;;;;;;3.90;0.70;;;6.90;99.90;;;;;;5031275;28;20042;-77
2024/01/31 04:40:08;;;;;;;5.47;0.80;;;6.90;99.90;;;;;;5031703;28;20029;-79
2024/01/31 04:42:37;;;;;;;4.37;0.80;;;6.90;99.90;;;;;;5032919;28;20493;-79
2024/01/31 04:45:03;;;;;;;4.63;1.07;;;6.90;99.90;;;;;;5032865;28;20030;-78
2024/01/31 04:47:29;;;;;;;6.03;0.83;;;6.90;99.90;;;;;;5031205;28;20044;-79
2024/01/31 04:49:58;;;;;;;2.17;0.53;;;6.90;99.90;;;;;;5032832;28;20108;-78
2024/01/31 04:52:25;;;;;;;3.93;0.90;;;6.90;99.90;;;;;;5032624;28;20060;-78
2024/01/31 04:54:51;;;;;;;6.60;1.13;;;6.90;99.90;;;;;;5032617;28;20029;-78
2024/01/31 04:57:17;;;;;;;3.97;0.90;;;6.90;99.90;;;;;;5032698;28;20128;-78
2024/01/31 04:59:43;;;;;;;4.70;1.10;;;7.00;99.90;;;;;;5031373;28;20389;-78
2024/01/31 05:02:09;;;;;;;6.30;1.13;;;7.00;99.90;;;;;;5031397;28;20014;-78
2024/01/31 05:04:35;;;;;;;3.37;0.80;;;7.00;99.90;;;;;;5032544;28;20032;-80
2024/01/31 05:07:01;;;;;;;4.10;1.13;;;6.90;99.90;;;;;;5031213;28;20036;-80
2024/01/31 05:09:27;;;;;;;3.07;0.83;;;6.90;99.90;;;;;;5026834;28;20033;-80
2024/01/31 05:11:52;;;;;;;3.80;0.60;;;6.90;99.90;;;;;;5027689;28;20021;-80
2024/01/31 05:14:18;;;;;;;5.70;1.07;;;6.90;99.90;;;;;;5032005;28;20112;-80
2024/01/31 05:16:44;;;;;;;5.97;1.10;;;6.90;99.90;;;;;;5030818;28;20025;-81
2024/01/31 05:19:12;;;;;;;5.77;0.77;;;6.90;99.90;;;;;;5022263;28;20060;-80
2024/01/31 05:21:45;;;;;;;4.33;0.90;;;6.90;99.90;;;;;;5015180;28;20029;-80
2024/01/31 05:24:11;;;;;;;5.67;0.80;;;6.90;99.90;;;;;;5011407;28;20036;-81
2024/01/31 05:26:37;;;;;;;6.87;1.47;;;6.90;99.90;;;;;;5012367;28;20057;-80
2024/01/31 05:29:02;;;;;;;4.30;0.97;;;6.80;99.90;;;;;;5012385;28;20083;-81
2024/01/31 05:31:28;;;;;;;4.70;0.90;;;6.90;99.90;;;;;;5011430;28;20106;-80
2024/01/31 05:33:54;;;;;;;4.17;1.00;;;6.90;99.90;;;;;;5012385;28;20496;-80
2024/01/31 05:36:19;;;;;;;4.57;1.03;;;6.90;99.90;;;;;;5014458;28;20029;-80
2024/01/31 05:38:45;;;;;;;6.93;1.17;;;6.90;99.90;;;;;;5015853;28;20504;-80
2024/01/31 05:41:12;;;;;;;4.50;0.97;;;6.90;99.90;;;;;;5015921;28;20581;-80
2024/01/31 05:43:38;;;;;;;3.17;0.90;;;6.90;99.90;;;;;;5015740;28;20026;-80
2024/01/31 05:46:04;;;;;;;4.87;1.27;;;6.90;99.90;;;;;;5015655;28;20095;-80
2024/01/31 05:48:29;;;;;;;6.03;1.30;;;6.90;99.90;;;;;;5015147;28;20026;-80
2024/01/31 05:50:55;;;;;;;3.97;0.93;;;6.90;99.90;;;;;;5017299;28;20370;-80
2024/01/31 05:53:20;;;;;;;5.10;1.30;;;6.90;99.90;;;;;;5031534;28;20075;-80
2024/01/31 05:55:46;;;;;;;3.23;1.10;;;6.90;99.90;;;;;;5034032;28;20022;-80
2024/01/31 05:58:12;;;;;;;3.77;0.70;;;6.90;99.90;;;;;;5035012;28;20474;-80
2024/01/31 06:00:37;;;;;;;6.03;0.93;;;7.00;99.90;;;;;;5035193;28;20029;-80
2024/01/31 06:03:03;;;;;;;7.87;1.40;;;7.00;99.90;;;;;;5032091;28;20021;-80
2024/01/31 06:05:29;;;;;;;3.53;1.13;;;7.00;99.90;;;;;;5029880;28;20076;-80
2024/01/31 06:07:55;;;;;;;4.50;1.23;;;6.80;99.90;;;;;;5032088;28;20485;-81
2024/01/31 06:10:21;;;;;;;4.80;0.87;;;6.90;99.90;;;;;;5016144;28;20038;-80
2024/01/31 06:12:46;;;;;;;6.13;1.10;;;6.90;99.90;;;;;;5015117;28;20030;-80
2024/01/31 06:15:13;;;;;;;4.23;0.90;;;6.90;99.90;;;;;;5016881;28;20390;-80
2024/01/31 06:17:41;;;;;;;6.77;1.13;;;6.90;99.90;;;;;;5014136;28;20359;-81
2024/01/31 06:20:08;;;;;;;2.67;0.87;;;6.90;99.90;;;;;;5013451;28;20055;-80
2024/01/31 06:22:33;;;;;;;4.50;0.90;;;6.90;99.90;;;;;;5013964;28;20033;-80
2024/01/31 06:24:59;;;;;;;5.63;1.20;;;6.90;99.90;;;;;;5015341;28;20018;-81
2024/01/31 06:27:24;;;;;;;5.37;1.30;;;6.90;99.90;;;;;;5014916;28;20390;-81
2024/01/31 06:29:50;;;;;;;2.67;0.77;;;6.90;99.90;;;;;;5015182;28;20037;-80
2024/01/31 06:32:21;;;;;;;4.60;1.00;;;6.90;99.90;;;;;;5014651;28;20076;-81
2024/01/31 06:34:47;;;;;;;2.90;0.90;;;6.90;99.90;;;;;;5013666;28;20029;-82
2024/01/31 06:37:13;;;;;;;2.50;1.00;;;6.90;99.90;;;;;;5014910;28;20101;-81
2024/01/31 06:39:40;;;;;;;3.33;0.90;;;6.90;99.90;;;;;;5022418;28;20134;-81
2024/01/31 06:42:07;;;;;;;3.60;1.37;;;6.90;99.90;;;;;;5027949;28;20032;-81
2024/01/31 06:44:33;;;;;;;3.70;1.20;;;6.90;99.90;;;;;;5015249;28;20055;-81
2024/01/31 06:46:58;;;;;;;6.97;1.63;;;6.90;99.90;;;;;;5012895;28;20427;-81
2024/01/31 06:49:24;;;;;;;4.20;1.03;;;6.90;99.90;;;;;;5014785;28;20096;-81
2024/01/31 06:51:50;;;;;;;7.37;1.40;;;6.90;99.90;;;;;;5015291;28;20028;-81
2024/01/31 06:54:16;;;;;;;4.43;1.50;;;6.90;99.90;;;;;;5022270;28;20108;-81
2024/01/31 06:56:42;;;;;;;4.00;1.30;;;7.00;99.90;;;;;;5032866;28;20389;-81
2024/01/31 06:59:08;;;;;;;7.13;1.80;;;6.90;99.90;;;;;;5032970;28;20117;-82
2024/01/31 07:01:34;;;;;;;4.67;1.80;;;6.90;99.90;;;;;;5032793;28;20541;-81
2024/01/31 07:04:00;;;;;;;6.00;2.10;;;6.80;99.90;;;;;;5034349;28;20037;-82
2024/01/31 07:06:25;;;;;;;5.90;1.60;;;6.80;99.90;;;;;;5033097;28;20045;-81
2024/01/31 07:08:51;;;;;;;4.93;1.60;;;6.90;99.90;;;;;;5032850;28;20075;-81
2024/01/31 07:11:17;;;;;;;4.90;2.07;;;6.90;99.90;;;;;;5032777;28;20025;-81
2024/01/31 07:13:43;;;;;;;3.77;1.50;;;6.90;99.90;;;;;;5032400;28;20389;-81
2024/01/31 07:16:09;;;;;;;3.30;1.50;;;6.90;99.90;;;;;;5033729;28;20074;-82
2024/01/31 07:18:43;;;;;;;8.23;1.90;;;6.90;99.90;;;;;;5033608;28;20075;-81
2024/01/31 07:21:10;;;;;;;7.30;1.77;;;6.90;99.90;;;;;;5033660;28;20182;-82
2024/01/31 07:23:36;;;;;;;4.80;1.60;;;6.90;99.90;;;;;;5033464;28;20104;-81
2024/01/31 07:26:02;;;;;;;5.27;1.80;;;6.90;99.90;;;;;;5033347;28;20026;-81
2024/01/31 07:28:33;;;;;;;5.63;2.10;;;6.90;99.90;;;;;;5033704;28;20025;-81
2024/01/31 07:31:02;;;;;;;3.83;1.80;;;6.90;99.90;;;;;;5030273;28;20025;-81
2024/01/31 07:33:28;;;;;;;4.90;1.90;;;6.90;99.90;;;;;;5027921;28;20459;-81
2024/01/31 07:35:53;;;;;;;5.77;2.73;;;6.90;99.90;;;;;;5032371;28;20112;-81
2024/01/31 07:38:20;;;;;;;4.60;1.93;;;6.90;99.90;;;;;;5033152;28;20060;-81
2024/01/31 07:40:45;;;;;;;5.87;2.13;;;6.90;99.90;;;;;;5033374;28;20075;-81
2024/01/31 07:43:11;;;;;;;5.77;1.70;;;6.90;99.90;;;;;;5033497;28;20053;-81
2024/01/31 07:45:37;;;;;;;3.67;1.90;;;6.90;99.90;;;;;;5031961;28;20422;-81
2024/01/31 07:48:03;;;;;;;8.03;2.10;;;6.90;99.90;;;;;;5032140;28;20029;-81
2024/01/31 07:50:28;;;;;;;4.97;2.50;;;6.90;99.90;;;;;;5032123;28;20036;-80
2024/01/31 07:52:54;;;;;;;4.30;2.07;;;6.90;99.90;;;;;;5031999;28;20071;-81
2024/01/31 07:55:20;;;;;;;6.77;1.83;;;6.90;99.90;;;;;;5033722;28;20022;-81
2024/01/31 07:57:45;;;;;;;6.33;1.90;;;6.90;99.90;;;;;;5032653;28;20515;-81
2024/01/31 08:00:12;;;;;;;5.17;1.80;;;6.90;99.90;;;;;;5033320;28;20488;-81
2024/01/31 08:02:38;;;;;;;5.27;1.77;;;6.90;99.90;;;;;;5032239;28;20063;-81
2024/01/31 08:05:04;;;;;;;4.80;2.00;;;6.90;99.90;;;;;;5032540;28;20030;-79
2024/01/31 08:07:30;;;;;;;9.43;2.30;;;6.90;99.90;;;;;;5012249;28;20381;-80
2024/01/31 08:09:56;;;;;;;9.97;2.23;;;7.00;99.90;;;;;;5012271;28;20022;-80
2024/01/31 08:12:22;;;;;;;4.77;2.23;;;7.00;99.90;;;;;;5011961;28;20030;-81
2024/01/31 08:14:47;;;;;;;5.00;2.13;;;7.00;99.90;;;;;;5012089;28;20117;-81
2024/01/31 08:17:13;;;;;;;5.53;2.57;;;7.00;99.90;;;;;;5030676;28;20382;-81
2024/01/31 08:19:39;;;;;;;5.30;2.30;;;7.00;99.90;;;;;;5023414;28;20378;-80
2024/01/31 08:22:04;;;;;;;7.73;2.33;;;7.10;99.90;;;;;;5013315;28;20512;-81
2024/01/31 08:24:30;;;;;;;4.57;2.37;;;7.00;99.90;;;;;;5011845;28;20116;-80
2024/01/31 08:26:56;;;;;;;7.53;3.33;;;7.00;99.90;;;;;;5013182;28;20425;-80
2024/01/31 08:29:22;;;;;;;7.13;3.17;;;7.00;99.90;;;;;;5012975;28;20026;-80
2024/01/31 08:31:48;;;;;;;9.23;3.53;;;7.10;99.90;;;;;;5013186;28;20041;-81
2024/01/31 08:34:14;;;;;;;10.07;3.07;;;7.10;99.90;;;;;;5012733;28;20109;-80
2024/01/31 08:36:40;;;;;;;8.10;3.80;;;7.10;99.90;;;;;;5011913;28;20146;-80
2024/01/31 08:39:08;;;;;;;5.53;3.30;;;7.10;99.90;;;;;;5012833;28;20042;-81
2024/01/31 08:41:34;;;;;;;10.33;3.47;;;7.10;99.90;;;;;;5011560;28;20061;-80
2024/01/31 08:44:01;;;;;;;8.37;3.67;;;7.20;99.90;;;;;;5011453;28;20060;-80
2024/01/31 08:46:28;;;;;;;14.80;4.97;;;7.20;99.90;;;;;;5012598;28;20390;-80
2024/01/31 08:48:53;;;;;;;8.50;3.80;;;7.20;99.90;;;;;;5011706;28;20014;-80
2024/01/31 08:51:20;;;;;;;9.10;3.80;;;7.20;99.90;;;;;;5012012;28;20033;-80
2024/01/31 08:53:45;;;;;;;8.13;3.60;;;7.20;99.90;;;;;;5011499;28;20068;-81
2024/01/31 08:56:11;;;;;;;9.30;3.90;;;7.30;99.90;;;;;;5011742;28;20061;-80
2024/01/31 08:58:38;;;;;;;8.77;3.70;;;7.30;99.90;;;;;;5011540;28;20022;-82
2024/01/31 09:01:04;;;;;;;10.10;3.40;;;7.20;99.90;;;;;;5011681;28;20033;-82
2024/01/31 09:03:30;;;;;;;12.40;3.90;;;7.30;99.90;;;;;;5011473;28;20041;-80
2024/01/31 09:05:56;;;;;;;6.57;2.97;;;7.40;99.90;;;;;;5013054;28;20318;-80
2024/01/31 09:08:22;;;;;;;7.47;2.90;;;7.40;99.90;;;;;;5011751;28;20058;-81
2024/01/31 09:10:48;;;;;;;7.07;3.23;;;7.40;99.90;;;;;;5016735;28;20049;-81
2024/01/31 09:13:13;;;;;;;7.40;3.13;;;7.50;99.90;;;;;;5016370;28;20026;-81
2024/01/31 09:15:39;;;;;;;7.50;3.23;;;7.50;99.90;;;;;;5016489;28;20072;-81
2024/01/31 09:18:05;;;;;;;9.17;3.23;;;7.50;99.90;;;;;;5016179;28;20022;-80
2024/01/31 09:20:30;;;;;;;6.73;3.03;;;7.60;99.90;;;;;;5015154;28;20014;-81
2024/01/31 09:22:56;;;;;;;8.57;3.63;;;7.60;99.90;;;;;;5016325;28;20430;-80
2024/01/31 09:25:22;;;;;;;5.90;3.03;;;7.60;99.90;;;;;;5024653;28;20017;-80
2024/01/31 09:27:47;;;;;;;8.73;3.80;;;7.70;99.90;;;;;;5029763;28;20025;-80
2024/01/31 09:30:13;;;;;;;9.40;3.83;;;7.70;99.90;;;;;;5022544;28;20025;-80
2024/01/31 09:32:39;;;;;;;7.67;3.83;;;7.70;99.90;;;;;;5024282;28;20105;-81
2024/01/31 09:35:06;;;;;;;7.90;3.97;;;7.80;99.90;;;;;;5028869;28;20097;-80
2024/01/31 09:37:34;;;;;;;11.07;4.30;;;7.80;99.90;;;;;;5023774;28;20038;-81
2024/01/31 09:40:00;;;;;;;10.67;4.20;;;7.80;99.90;;;;;;5022345;28;20124;-80
2024/01/31 09:42:26;;;;;;;8.37;4.50;;;7.80;99.90;;;;;;5024823;28;20109;-80
2024/01/31 09:44:58;;;;;;;12.93;4.47;;;7.90;99.90;;;;;;5024123;28;20014;-82
2024/01/31 09:47:28;;;;;;;13.37;5.13;;;8.00;99.90;;;;;;5031314;28;20026;-80
2024/01/31 09:49:57;;;;;;;8.53;4.83;;;8.00;99.90;;;;;;5035916;28;20021;-80
2024/01/31 09:52:28;;;;;;;8.97;4.83;;;8.10;99.90;;;;;;5035829;28;20021;-83
2024/01/31 09:54:58;;;;;;;13.87;4.80;;;8.10;99.90;;;;;;5034199;28;20024;-82
2024/01/31 09:57:24;;;;;;;13.40;5.03;;;8.20;99.90;;;;;;5034454;28;20029;-83
2024/01/31 09:59:51;;;;;;;11.63;4.67;;;8.20;99.90;;;;;;5034286;28;20036;-82
2024/01/31 10:02:17;;;;;;;13.00;5.43;;;8.30;99.90;;;;;;5035456;28;20385;-83
2024/01/31 10:04:49;;;;;;;11.87;5.03;;;8.30;99.90;;;;;;5035005;28;20029;-81
2024/01/31 10:07:28;;;;;;;12.97;6.03;;;8.30;99.90;;;;;;5035674;28;20022;-81
2024/01/31 10:09:54;;;;;;;13.33;7.00;;;8.40;99.90;;;;;;5034224;28;20030;-82
2024/01/31 10:12:21;;;;;;;19.20;9.13;;;8.40;99.90;;;;;;5035044;28;20029;-81
2024/01/31 10:14:52;;;;;;;15.37;7.70;;;8.40;99.90;;;;;;5035773;28;20097;-83
2024/01/31 10:17:22;;;;;;;20.60;7.83;;;8.40;99.90;;;;;;5035372;28;20385;-82
2024/01/31 10:19:49;;;;;;;17.43;8.40;;;8.40;99.90;;;;;;5033610;28;20087;-82
2024/01/31 10:22:14;;;;;;;15.77;8.97;;;8.40;99.90;;;;;;5033360;28;20041;-81
2024/01/31 10:24:40;;;;;;;21.97;10.03;;;8.40;99.90;;;;;;5034713;28;20060;-81
2024/01/31 10:27:08;;;;;;;19.93;10.13;;;8.40;99.90;;;;;;5034736;28;20155;-82
2024/01/31 10:29:36;;;;;;;19.03;10.03;;;8.40;99.90;;;;;;5034956;28;20021;-82
2024/01/31 10:32:03;;;;;;;22.33;10.50;;;8.40;99.90;;;;;;5034920;28;20108;-82
2024/01/31 10:34:29;;;;;;;26.57;12.20;;;8.40;99.90;;;;;;5033711;28;20038;-82
2024/01/31 10:36:56;;;;;;;21.40;11.63;;;8.40;99.90;;;;;;5034635;28;20029;-82
2024/01/31 10:39:22;;;;;;;20.50;11.67;;;8.40;99.90;;;;;;5032881;28;20084;-81
2024/01/31 10:41:48;;;;;;;24.87;11.43;;;8.40;99.90;;;;;;5034426;28;20046;-77
2024/01/31 10:44:14;;;;;;;28.43;12.83;;;8.40;99.90;;;;;;5033426;28;20024;-80
2024/01/31 10:46:41;;;;;;;24.97;12.10;;;8.40;99.90;;;;;;5034180;28;20053;-79
2024/01/31 10:49:07;;;;;;;25.10;13.27;;;8.40;99.90;;;;;;5034474;28;20032;-79
2024/01/31 10:51:34;;;;;;;24.70;13.17;;;8.40;99.90;;;;;;5033199;28;20155;-80
2024/01/31 10:54:01;;;;;;;32.20;16.23;;;8.40;99.90;;;;;;5033831;28;20097;-80
2024/01/31 10:56:27;;;;;;;35.17;16.80;;;8.40;99.90;;;;;;5029934;28;20120;-81
2024/01/31 10:58:56;;;;;;;31.13;15.33;;;8.30;99.90;;;;;;5033161;28;20104;-80
2024/01/31 11:01:27;;;;;;;27.07;14.97;;;8.40;99.90;;;;;;5034646;28;20028;-80
2024/01/31 11:03:53;;;;;;;31.03;16.93;;;8.40;99.90;;;;;;5034237;28;20032;-79
2024/01/31 11:06:19;;;;;;;32.43;15.20;;;8.40;99.90;;;;;;5032454;28;20053;-79
2024/01/31 11:08:47;;;;;;;30.77;16.20;;;8.50;99.90;;;;;;5032624;28;20065;-79
2024/01/31 11:11:17;;;;;;;34.00;17.03;;;8.50;99.90;;;;;;5034070;28;20037;-80
2024/01/31 11:13:43;;;;;;;30.97;16.23;;;8.50;99.90;;;;;;5032540;28;20068;-80
2024/01/31 11:16:08;;;;;;;27.73;15.73;;;8.50;99.90;;;;;;5033838;28;20021;-81
2024/01/31 11:18:36;;;;;;;31.70;16.77;;;8.50;99.90;;;;;;5032374;28;20026;-81
2024/01/31 11:21:10;;;;;;;30.47;15.70;;;8.50;99.90;;;;;;5033768;28;20030;-80
2024/01/31 11:23:36;;;;;;;;;;;8.60;99.90;;;;;;5033022;28;20032;-80
2024/01/31 11:26:02;;;;;;;34.63;17.60;;;8.60;99.90;;;;;;5048544;28;20292;-79
2024/01/31 11:28:28;;;;;;;34.40;17.47;;;8.60;99.90;;;;;;5031705;28;20417;-82
2024/01/31 11:30:54;;;;;;;32.77;18.13;;;8.70;99.90;;;;;;5033533;28;20044;-79
2024/01/31 11:33:21;;;;;;;32.97;17.50;;;8.60;99.90;;;;;;5028611;28;20024;-79
2024/01/31 11:35:47;;;;;;;32.47;18.40;;;8.70;99.90;;;;;;5025007;28;20088;-80
2024/01/31 11:38:13;;;;;;;34.20;19.17;;;8.70;99.90;;;;;;5033263;28;20075;-80
2024/01/31 11:40:39;;;;;;;36.47;19.30;;;8.70;99.90;;;;;;5033894;28;20025;-81
2024/01/31 11:43:05;;;;;;;34.00;19.13;;;8.70;99.90;;;;;;5032314;28;20353;-82
2024/01/31 11:45:31;;;;;;;35.67;18.57;;;8.70;99.90;;;;;;5027998;28;20021;-82
2024/01/31 11:47:58;;;;;;;37.00;17.80;;;8.70;99.90;;;;;;5024947;28;20026;-82
2024/01/31 11:50:25;;;;;;;36.23;18.33;;;8.70;99.90;;;;;;5029546;28;20100;-82
2024/01/31 11:52:51;;;;;;;31.90;17.93;;;8.70;99.90;;;;;;5028239;28;20503;-82
2024/01/31 11:55:25;;;;;;;36.43;19.07;;;8.70;99.90;;;;;;5026331;28;20024;-82
2024/01/31 11:57:51;;;;;;;;;;;8.70;99.90;;;;;;5032458;28;20493;-82
2024/01/31 12:00:17;;;;;;;31.93;17.73;;;8.70;99.90;;;;;;5048470;28;19912;-82
2024/01/31 12:02:50;;;;;;;36.47;18.77;;;8.70;99.90;;;;;;5032894;28;20446;-81
2024/01/31 12:05:15;;;;;;;30.73;16.10;;;8.70;99.90;;;;;;5031852;28;20361;-82
2024/01/31 12:07:41;;;;;;;32.10;17.67;;;8.70;99.90;;;;;;5031963;28;20035;-82
2024/01/31 12:10:09;;;;;;;28.03;16.23;;;8.70;99.90;;;;;;5024611;28;20049;-84
2024/01/31 12:12:41;;;;;;;31.87;17.27;;;8.70;99.90;;;;;;5029708;28;20038;-82
2024/01/31 12:15:10;;;;;;;32.47;16.03;;;8.70;99.90;;;;;;5032036;28;20112;-82
2024/01/31 12:17:36;;;;;;;28.53;15.47;;;8.70;99.90;;;;;;5031735;28;20025;-83
2024/01/31 12:20:04;;;;;;;28.63;15.87;;;8.70;99.90;;;;;;5031856;28;20401;-83
2024/01/31 12:22:33;;;;;;;26.10;15.17;;;8.70;99.90;;;;;;5031711;28;20523;-83
2024/01/31 12:25:02;;;;;;;29.00;14.77;;;8.70;99.90;;;;;;5033089;28;20030;-83
2024/01/31 12:27:29;;;;;;;25.70;14.30;;;8.70;99.90;;;;;;5032702;28;20104;-82
2024/01/31 12:29:55;;;;;;;22.77;13.40;;;8.70;99.90;;;;;;5031700;28;20022;-83
2024/01/31 12:32:21;;;;;;;22.00;12.97;;;8.70;99.90;;;;;;5017175;28;20493;-82
2024/01/31 12:34:46;;;;;;;23.50;13.10;;;8.70;99.90;;;;;;5018171;28;20026;-82
2024/01/31 12:37:12;;;;;;;22.60;13.13;;;8.70;99.90;;;;;;5022486;28;20156;-82
2024/01/31 12:39:37;;;;;;;21.97;13.27;;;8.70;99.90;;;;;;5031434;28;20468;-83
2024/01/31 12:42:03;;;;;;;18.20;12.33;;;8.60;99.30;;;;;;5032343;28;20033;-83
2024/01/31 12:44:30;;;;;;;18.93;12.30;;;8.60;99.20;;;;;;5034883;28;20041;-82
2024/01/31 12:46:56;;;;;;;20.93;12.17;;;8.60;99.20;;;;;;5035340;28;20025;-83